sensor_id;sensor_type;location;lat;lon;timestamp;pressure;altitude;pressure_sealevel;temperature;humidity
41334;BME280;27078;46.428;6.256;2023-05-10T00:00:31;96307.72;;;12.14;100.00
41334;BME280;27078;46.428;6.256;2023-05-10T00:02:56;96310.09;;;12.17;100.00
41334;BME280;27078;46.428;6.256;2023-05-10T00:05:21;96310.25;;;12.16;100.00
41334;BME280;27078;46.428;6.256;2023-05-10T00:07:47;96311.72;;;12.00;100.00
41334;BME280;27078;46.428;6.256;2023-05-10T00:10:12;96295.94;;;11.81;100.00
41334;BME280;27078;46.428;6.256;2023-05-10T00:12:38;96293.03;;;11.74;100.00
41334;BME280;27078;46.428;6.256;2023-05-10T00:15:04;96299.53;;;11.52;100.00
41334;BME280;27078;46.428;6.256;2023-05-10T00:17:29;96309.03;;;11.45;100.00
41334;BME280;27078;46.428;6.256;2023-05-10T00:19:54;96316.56;;;11.40;100.00
41334;BME280;27078;46.428;6.256;2023-05-10T00:22:21;96313.81;;;11.32;100.00
41334;BME280;27078;46.428;6.256;2023-05-10T00:24:47;96311.59;;;11.27;100.00
41334;BME280;27078;46.428;6.256;2023-05-10T00:27:12;96312.28;;;11.19;100.00
41334;BME280;27078;46.428;6.256;2023-05-10T00:29:37;96308.81;;;11.19;100.00
41334;BME280;27078;46.428;6.256;2023-05-10T00:32:03;96304.28;;;11.11;100.00
41334;BME280;27078;46.428;6.256;2023-05-10T00:34:28;96304.53;;;11.08;100.00
41334;BME280;27078;46.428;6.256;2023-05-10T00:36:53;96288.81;;;11.07;100.00
41334;BME280;27078;46.428;6.256;2023-05-10T00:39:19;96301.06;;;11.08;100.00
41334;BME280;27078;46.428;6.256;2023-05-10T00:41:45;96293.53;;;11.13;100.00
41334;BME280;27078;46.428;6.256;2023-05-10T00:44:10;96299.97;;;11.00;100.00
41334;BME280;27078;46.428;6.256;2023-05-10T00:46:36;96292.75;;;10.93;100.00
41334;BME280;27078;46.428;6.256;2023-05-10T00:49:01;96295.16;;;10.86;100.00
41334;BME280;27078;46.428;6.256;2023-05-10T00:51:27;96300.53;;;11.04;100.00
41334;BME280;27078;46.428;6.256;2023-05-10T00:53:52;96288.56;;;11.10;100.00
41334;BME280;27078;46.428;6.256;2023-05-10T00:56:19;96284.22;;;11.18;100.00
41334;BME280;27078;46.428;6.256;2023-05-10T00:58:47;96289.19;;;11.21;100.00
41334;BME280;27078;46.428;6.256;2023-05-10T01:01:13;96288.81;;;11.16;100.00
41334;BME280;27078;46.428;6.256;2023-05-10T01:03:39;96279.63;;;11.20;100.00
41334;BME280;27078;46.428;6.256;2023-05-10T01:06:05;96280.19;;;11.14;100.00
41334;BME280;27078;46.428;6.256;2023-05-10T01:08:30;96279.94;;;10.98;100.00
41334;BME280;27078;46.428;6.256;2023-05-10T01:10:56;96280.56;;;10.82;100.00
41334;BME280;27078;46.428;6.256;2023-05-10T01:13:38;96280.28;;;10.75;100.00
41334;BME280;27078;46.428;6.256;2023-05-10T01:16:05;96284.56;;;10.76;100.00
41334;BME280;27078;46.428;6.256;2023-05-10T01:18:34;96285.84;;;10.82;100.00
41334;BME280;27078;46.428;6.256;2023-05-10T01:32:22;96285.28;;;10.78;100.00
41334;BME280;27078;46.428;6.256;2023-05-10T01:35:06;96284.19;;;10.71;100.00
41334;BME280;27078;46.428;6.256;2023-05-10T01:40:39;96308.34;;;10.76;100.00
41334;BME280;27078;46.428;6.256;2023-05-10T01:43:11;96315.88;;;10.71;100.00
41334;BME280;27078;46.428;6.256;2023-05-10T01:45:50;96312.53;;;10.89;100.00
41334;BME280;27078;46.428;6.256;2023-05-10T01:48:22;96308.19;;;10.97;100.00
41334;BME280;27078;46.428;6.256;2023-05-10T01:50:49;96309.19;;;10.96;100.00
41334;BME280;27078;46.428;6.256;2023-05-10T01:53:18;96311.81;;;10.96;100.00
41334;BME280;27078;46.428;6.256;2023-05-10T01:55:52;96314.59;;;10.95;100.00
41334;BME280;27078;46.428;6.256;2023-05-10T01:58:22;96319.44;;;10.90;100.00
41334;BME280;27078;46.428;6.256;2023-05-10T02:00:49;96311.44;;;10.82;100.00
41334;BME280;27078;46.428;6.256;2023-05-10T02:03:17;96314.72;;;10.93;100.00
41334;BME280;27078;46.428;6.256;2023-05-10T02:05:44;96316.97;;;10.88;100.00
41334;BME280;27078;46.428;6.256;2023-05-10T02:08:11;96315.84;;;10.91;100.00
41334;BME280;27078;46.428;6.256;2023-05-10T02:10:39;96320.00;;;10.84;100.00
41334;BME280;27078;46.428;6.256;2023-05-10T02:13:06;96325.59;;;10.80;100.00
41334;BME280;27078;46.428;6.256;2023-05-10T02:15:32;96325.88;;;10.77;100.00
41334;BME280;27078;46.428;6.256;2023-05-10T02:17:59;96327.84;;;10.75;100.00
41334;BME280;27078;46.428;6.256;2023-05-10T02:20:26;96331.16;;;10.77;100.00
41334;BME280;27078;46.428;6.256;2023-05-10T02:22:54;96334.47;;;10.89;100.00
41334;BME280;27078;46.428;6.256;2023-05-10T02:25:23;96338.66;;;10.92;100.00
41334;BME280;27078;46.428;6.256;2023-05-10T02:27:48;96335.44;;;10.98;100.00
41334;BME280;27078;46.428;6.256;2023-05-10T02:30:15;96341.72;;;10.97;100.00
41334;BME280;27078;46.428;6.256;2023-05-10T02:32:42;96346.16;;;10.96;100.00
41334;BME280;27078;46.428;6.256;2023-05-10T02:35:08;96338.63;;;11.02;100.00
41334;BME280;27078;46.428;6.256;2023-05-10T02:37:36;96341.53;;;11.08;100.00
41334;BME280;27078;46.428;6.256;2023-05-10T02:40:03;96337.66;;;11.03;100.00
41334;BME280;27078;46.428;6.256;2023-05-10T02:42:31;96342.97;;;10.93;100.00
41334;BME280;27078;46.428;6.256;2023-05-10T02:45:00;96340.19;;;10.85;100.00
41334;BME280;27078;46.428;6.256;2023-05-10T02:47:27;96341.88;;;10.76;100.00
41334;BME280;27078;46.428;6.256;2023-05-10T02:49:53;96340.34;;;10.73;100.00
41334;BME280;27078;46.428;6.256;2023-05-10T02:52:22;96331.47;;;10.65;100.00
41334;BME280;27078;46.428;6.256;2023-05-10T02:54:50;96329.78;;;10.73;100.00
41334;BME280;27078;46.428;6.256;2023-05-10T02:57:24;96333.38;;;10.72;100.00
41334;BME280;27078;46.428;6.256;2023-05-10T02:59:51;96332.53;;;10.62;100.00
41334;BME280;27078;46.428;6.256;2023-05-10T03:02:16;96337.81;;;10.62;100.00
41334;BME280;27078;46.428;6.256;2023-05-10T03:04:42;96341.59;;;10.59;100.00
41334;BME280;27078;46.428;6.256;2023-05-10T03:07:07;96340.63;;;10.61;100.00
41334;BME280;27078;46.428;6.256;2023-05-10T03:09:33;96342.28;;;10.62;100.00
41334;BME280;27078;46.428;6.256;2023-05-10T03:12:22;96338.38;;;10.66;100.00
41334;BME280;27078;46.428;6.256;2023-05-10T03:17:55;96358.28;;;10.79;100.00
41334;BME280;27078;46.428;6.256;2023-05-10T03:20:25;96351.16;;;10.70;100.00
41334;BME280;27078;46.428;6.256;2023-05-10T03:23:04;96353.81;;;10.70;100.00
41334;BME280;27078;46.428;6.256;2023-05-10T03:25:31;96347.84;;;10.68;100.00
41334;BME280;27078;46.428;6.256;2023-05-10T03:27:57;96348.56;;;10.61;100.00
41334;BME280;27078;46.428;6.256;2023-05-10T03:30:24;96351.03;;;10.62;100.00
41334;BME280;27078;46.428;6.256;2023-05-10T03:32:50;96348.25;;;10.54;100.00
41334;BME280;27078;46.428;6.256;2023-05-10T03:35:15;96343.66;;;10.56;100.00
41334;BME280;27078;46.428;6.256;2023-05-10T03:37:40;96351.59;;;10.56;100.00
41334;BME280;27078;46.428;6.256;2023-05-10T03:40:06;96347.84;;;10.58;100.00
41334;BME280;27078;46.428;6.256;2023-05-10T03:42:32;96341.16;;;10.64;100.00
41334;BME280;27078;46.428;6.256;2023-05-10T03:44:57;96340.88;;;10.87;100.00
41334;BME280;27078;46.428;6.256;2023-05-10T03:47:22;96344.34;;;10.97;100.00
41334;BME280;27078;46.428;6.256;2023-05-10T03:49:48;96331.66;;;11.00;100.00
41334;BME280;27078;46.428;6.256;2023-05-10T03:52:13;96336.69;;;10.94;100.00
41334;BME280;27078;46.428;6.256;2023-05-10T03:54:38;96341.16;;;10.84;100.00
41334;BME280;27078;46.428;6.256;2023-05-10T03:57:04;96336.84;;;10.83;100.00
41334;BME280;27078;46.428;6.256;2023-05-10T03:59:29;96324.47;;;10.93;100.00
41334;BME280;27078;46.428;6.256;2023-05-10T04:01:55;96326.38;;;11.00;100.00
41334;BME280;27078;46.428;6.256;2023-05-10T04:04:20;96327.13;;;10.93;100.00
41334;BME280;27078;46.428;6.256;2023-05-10T04:06:46;96334.06;;;10.94;100.00
41334;BME280;27078;46.428;6.256;2023-05-10T04:09:12;96331.00;;;10.89;100.00
41334;BME280;27078;46.428;6.256;2023-05-10T04:11:37;96345.06;;;10.79;100.00
41334;BME280;27078;46.428;6.256;2023-05-10T04:14:02;96333.09;;;10.66;100.00
41334;BME280;27078;46.428;6.256;2023-05-10T04:16:28;96329.22;;;10.60;100.00
41334;BME280;27078;46.428;6.256;2023-05-10T04:18:53;96330.31;;;10.57;100.00
41334;BME280;27078;46.428;6.256;2023-05-10T04:21:19;96327.81;;;10.56;100.00
41334;BME280;27078;46.428;6.256;2023-05-10T04:23:44;96334.94;;;10.46;100.00
41334;BME280;27078;46.428;6.256;2023-05-10T04:26:10;96326.69;;;10.39;100.00
41334;BME280;27078;46.428;6.256;2023-05-10T04:28:35;96315.84;;;10.32;100.00
41334;BME280;27078;46.428;6.256;2023-05-10T04:31:04;96313.50;;;10.29;100.00
41334;BME280;27078;46.428;6.256;2023-05-10T04:33:30;96326.41;;;10.32;100.00
41334;BME280;27078;46.428;6.256;2023-05-10T04:35:56;96323.50;;;10.45;100.00
41334;BME280;27078;46.428;6.256;2023-05-10T04:38:21;96321.72;;;10.46;100.00
41334;BME280;27078;46.428;6.256;2023-05-10T04:40:47;96334.22;;;10.44;100.00
41334;BME280;27078;46.428;6.256;2023-05-10T04:43:12;96339.50;;;10.44;100.00
41334;BME280;27078;46.428;6.256;2023-05-10T04:45:38;96331.69;;;10.52;100.00
41334;BME280;27078;46.428;6.256;2023-05-10T04:48:03;96343.66;;;10.56;100.00
41334;BME280;27078;46.428;6.256;2023-05-10T04:50:29;96335.34;;;10.61;100.00
41334;BME280;27078;46.428;6.256;2023-05-10T04:52:54;96338.69;;;10.63;100.00
41334;BME280;27078;46.428;6.256;2023-05-10T04:55:19;96344.78;;;10.73;100.00
41334;BME280;27078;46.428;6.256;2023-05-10T04:57:45;96346.72;;;10.80;100.00
41334;BME280;27078;46.428;6.256;2023-05-10T05:00:11;96349.50;;;10.89;100.00
41334;BME280;27078;46.428;6.256;2023-05-10T05:02:37;96342.81;;;11.04;100.00
41334;BME280;27078;46.428;6.256;2023-05-10T05:05:02;96337.38;;;11.15;100.00
41334;BME280;27078;46.428;6.256;2023-05-10T05:07:28;96347.78;;;11.17;100.00
41334;BME280;27078;46.428;6.256;2023-05-10T05:09:53;96338.91;;;11.18;100.00
41334;BME280;27078;46.428;6.256;2023-05-10T05:12:18;96351.38;;;11.26;100.00
41334;BME280;27078;46.428;6.256;2023-05-10T05:14:44;96346.41;;;11.23;100.00
41334;BME280;27078;46.428;6.256;2023-05-10T05:17:09;96367.47;;;11.52;100.00
41334;BME280;27078;46.428;6.256;2023-05-10T05:19:34;96334.88;;;11.51;100.00
41334;BME280;27078;46.428;6.256;2023-05-10T05:22:00;96354.78;;;11.55;100.00
41334;BME280;27078;46.428;6.256;2023-05-10T05:24:26;96356.47;;;11.56;100.00
41334;BME280;27078;46.428;6.256;2023-05-10T05:26:51;96375.69;;;11.86;100.00
41334;BME280;27078;46.428;6.256;2023-05-10T05:29:16;96362.13;;;11.71;100.00
41334;BME280;27078;46.428;6.256;2023-05-10T05:31:42;96365.78;;;11.60;100.00
41334;BME280;27078;46.428;6.256;2023-05-10T05:34:07;96359.09;;;11.56;100.00
41334;BME280;27078;46.428;6.256;2023-05-10T05:36:36;96345.19;;;11.54;100.00
41334;BME280;27078;46.428;6.256;2023-05-10T05:39:05;96350.38;;;11.46;100.00
41334;BME280;27078;46.428;6.256;2023-05-10T05:41:30;96348.63;;;11.65;100.00
41334;BME280;27078;46.428;6.256;2023-05-10T05:43:55;96357.69;;;11.99;100.00
41334;BME280;27078;46.428;6.256;2023-05-10T05:46:21;96358.00;;;12.24;100.00
41334;BME280;27078;46.428;6.256;2023-05-10T05:48:46;96348.50;;;12.49;100.00
41334;BME280;27078;46.428;6.256;2023-05-10T05:51:11;96350.75;;;12.62;100.00
41334;BME280;27078;46.428;6.256;2023-05-10T05:53:37;96359.22;;;12.83;100.00
41334;BME280;27078;46.428;6.256;2023-05-10T05:56:02;96358.97;;;12.95;100.00
41334;BME280;27078;46.428;6.256;2023-05-10T05:58:28;96348.50;;;13.11;100.00
41334;BME280;27078;46.428;6.256;2023-05-10T06:00:54;96361.97;;;13.62;100.00
41334;BME280;27078;46.428;6.256;2023-05-10T06:03:19;96365.22;;;13.82;100.00
41334;BME280;27078;46.428;6.256;2023-05-10T06:05:45;96369.78;;;13.98;100.00
41334;BME280;27078;46.428;6.256;2023-05-10T06:08:10;96382.06;;;13.91;100.00
41334;BME280;27078;46.428;6.256;2023-05-10T06:10:36;96346.47;;;14.10;100.00
41334;BME280;27078;46.428;6.256;2023-05-10T06:13:01;96361.97;;;13.96;100.00
41334;BME280;27078;46.428;6.256;2023-05-10T06:15:27;96369.00;;;14.14;100.00
41334;BME280;27078;46.428;6.256;2023-05-10T06:17:52;96374.75;;;14.35;100.00
41334;BME280;27078;46.428;6.256;2023-05-10T06:20:18;96371.72;;;14.30;100.00
41334;BME280;27078;46.428;6.256;2023-05-10T06:22:43;96375.78;;;14.51;100.00
41334;BME280;27078;46.428;6.256;2023-05-10T06:25:09;96383.03;;;14.32;100.00
41334;BME280;27078;46.428;6.256;2023-05-10T06:27:35;96378.06;;;14.29;100.00
41334;BME280;27078;46.428;6.256;2023-05-10T06:30:00;96377.91;;;14.39;100.00
41334;BME280;27078;46.428;6.256;2023-05-10T06:32:25;96378.16;;;14.62;100.00
41334;BME280;27078;46.428;6.256;2023-05-10T06:34:51;96372.53;;;14.81;100.00
41334;BME280;27078;46.428;6.256;2023-05-10T06:37:17;96375.53;;;14.70;100.00
41334;BME280;27078;46.428;6.256;2023-05-10T06:39:42;96376.81;;;14.58;100.00
41334;BME280;27078;46.428;6.256;2023-05-10T06:42:08;96377.84;;;14.65;100.00
41334;BME280;27078;46.428;6.256;2023-05-10T06:44:33;96380.91;;;14.44;100.00
41334;BME280;27078;46.428;6.256;2023-05-10T06:46:59;96382.09;;;14.50;100.00
41334;BME280;27078;46.428;6.256;2023-05-10T06:49:24;96380.50;;;14.57;100.00
41334;BME280;27078;46.428;6.256;2023-05-10T06:51:49;96387.19;;;15.02;100.00
41334;BME280;27078;46.428;6.256;2023-05-10T06:54:15;96390.34;;;15.38;100.00
41334;BME280;27078;46.428;6.256;2023-05-10T06:56:40;96386.03;;;15.54;100.00
41334;BME280;27078;46.428;6.256;2023-05-10T06:59:05;96391.81;;;15.82;100.00
41334;BME280;27078;46.428;6.256;2023-05-10T07:01:31;96397.13;;;15.65;100.00
41334;BME280;27078;46.428;6.256;2023-05-10T07:03:57;96396.47;;;15.88;100.00
41334;BME280;27078;46.428;6.256;2023-05-10T07:06:22;96402.13;;;15.68;100.00
41334;BME280;27078;46.428;6.256;2023-05-10T07:08:47;96411.63;;;15.05;100.00
41334;BME280;27078;46.428;6.256;2023-05-10T07:11:12;96404.88;;;14.60;100.00
41334;BME280;27078;46.428;6.256;2023-05-10T07:13:38;96405.56;;;14.20;100.00
41334;BME280;27078;46.428;6.256;2023-05-10T07:16:06;96406.13;;;13.97;100.00
41334;BME280;27078;46.428;6.256;2023-05-10T07:18:32;96405.31;;;13.44;100.00
41334;BME280;27078;46.428;6.256;2023-05-10T07:20:58;96413.50;;;13.33;100.00
41334;BME280;27078;46.428;6.256;2023-05-10T07:23:23;96401.38;;;13.49;100.00
41334;BME280;27078;46.428;6.256;2023-05-10T07:25:49;96417.78;;;13.52;100.00
41334;BME280;27078;46.428;6.256;2023-05-10T07:28:16;96418.84;;;13.59;100.00
41334;BME280;27078;46.428;6.256;2023-05-10T07:30:42;96424.34;;;13.92;100.00
41334;BME280;27078;46.428;6.256;2023-05-10T07:33:09;96416.03;;;14.21;100.00
41334;BME280;27078;46.428;6.256;2023-05-10T07:35:35;96422.59;;;14.52;100.00
41334;BME280;27078;46.428;6.256;2023-05-10T07:38:00;96409.13;;;14.45;100.00
41334;BME280;27078;46.428;6.256;2023-05-10T07:40:26;96409.22;;;14.19;100.00
41334;BME280;27078;46.428;6.256;2023-05-10T07:42:51;96411.50;;;14.14;100.00
41334;BME280;27078;46.428;6.256;2023-05-10T07:45:17;96413.25;;;14.31;100.00
41334;BME280;27078;46.428;6.256;2023-05-10T07:47:43;96407.00;;;15.24;100.00
41334;BME280;27078;46.428;6.256;2023-05-10T07:50:08;96407.91;;;15.97;100.00
41334;BME280;27078;46.428;6.256;2023-05-10T07:52:33;96420.09;;;16.39;100.00
41334;BME280;27078;46.428;6.256;2023-05-10T07:54:59;96429.94;;;16.38;100.00
41334;BME280;27078;46.428;6.256;2023-05-10T07:57:24;96426.41;;;16.38;100.00
41334;BME280;27078;46.428;6.256;2023-05-10T07:59:50;96431.75;;;15.57;100.00
41334;BME280;27078;46.428;6.256;2023-05-10T08:02:15;96420.75;;;15.11;100.00
41334;BME280;27078;46.428;6.256;2023-05-10T08:04:40;96457.41;;;14.32;100.00
41334;BME280;27078;46.428;6.256;2023-05-10T08:07:06;96460.16;;;14.14;100.00
41334;BME280;27078;46.428;6.256;2023-05-10T08:09:32;96447.16;;;13.77;100.00
41334;BME280;27078;46.428;6.256;2023-05-10T08:11:57;96435.75;;;13.58;100.00
41334;BME280;27078;46.428;6.256;2023-05-10T08:14:24;96429.34;;;13.43;100.00
41334;BME280;27078;46.428;6.256;2023-05-10T08:16:49;96427.88;;;14.01;100.00
41334;BME280;27078;46.428;6.256;2023-05-10T08:19:15;96417.00;;;14.55;100.00
41334;BME280;27078;46.428;6.256;2023-05-10T08:21:44;96420.34;;;14.57;100.00
41334;BME280;27078;46.428;6.256;2023-05-10T08:24:09;96426.63;;;14.56;100.00
41334;BME280;27078;46.428;6.256;2023-05-10T08:26:35;96424.97;;;14.12;100.00
41334;BME280;27078;46.428;6.256;2023-05-10T08:29:00;96427.19;;;14.25;100.00
41334;BME280;27078;46.428;6.256;2023-05-10T08:31:25;96418.56;;;14.31;100.00
41334;BME280;27078;46.428;6.256;2023-05-10T08:33:51;96412.72;;;14.62;100.00
41334;BME280;27078;46.428;6.256;2023-05-10T08:36:17;96416.22;;;14.71;100.00
41334;BME280;27078;46.428;6.256;2023-05-10T08:38:47;96414.56;;;14.27;100.00
41334;BME280;27078;46.428;6.256;2023-05-10T08:41:13;96429.56;;;14.44;100.00
41334;BME280;27078;46.428;6.256;2023-05-10T08:43:39;96411.72;;;14.63;100.00
41334;BME280;27078;46.428;6.256;2023-05-10T08:46:07;96413.22;;;14.65;100.00
41334;BME280;27078;46.428;6.256;2023-05-10T08:48:34;96422.41;;;14.88;100.00
41334;BME280;27078;46.428;6.256;2023-05-10T08:51:00;96419.59;;;14.97;100.00
41334;BME280;27078;46.428;6.256;2023-05-10T08:53:26;96424.09;;;15.13;100.00
41334;BME280;27078;46.428;6.256;2023-05-10T08:55:53;96426.91;;;15.28;100.00
41334;BME280;27078;46.428;6.256;2023-05-10T08:58:19;96442.16;;;14.85;100.00
41334;BME280;27078;46.428;6.256;2023-05-10T09:00:45;96430.09;;;14.99;100.00
41334;BME280;27078;46.428;6.256;2023-05-10T09:03:11;96424.78;;;15.56;100.00
41334;BME280;27078;46.428;6.256;2023-05-10T09:05:37;96427.59;;;15.71;100.00
41334;BME280;27078;46.428;6.256;2023-05-10T09:08:02;96415.94;;;16.36;93.88
41334;BME280;27078;46.428;6.256;2023-05-10T09:10:28;96422.94;;;15.65;90.88
41334;BME280;27078;46.428;6.256;2023-05-10T09:12:56;96429.59;;;15.85;97.31
41334;BME280;27078;46.428;6.256;2023-05-10T09:15:22;96430.94;;;16.29;89.26
41334;BME280;27078;46.428;6.256;2023-05-10T09:17:49;96430.63;;;16.32;92.27
41334;BME280;27078;46.428;6.256;2023-05-10T09:20:14;96426.03;;;16.01;100.00
41334;BME280;27078;46.428;6.256;2023-05-10T09:22:40;96434.09;;;15.68;99.49
41334;BME280;27078;46.428;6.256;2023-05-10T09:25:14;96434.41;;;15.82;97.79
41334;BME280;27078;46.428;6.256;2023-05-10T09:27:41;96422.44;;;15.78;100.00
41334;BME280;27078;46.428;6.256;2023-05-10T09:30:08;96421.75;;;15.67;100.00
41334;BME280;27078;46.428;6.256;2023-05-10T09:32:42;96423.53;;;16.08;100.00
41334;BME280;27078;46.428;6.256;2023-05-10T09:35:13;96424.94;;;16.35;100.00
41334;BME280;27078;46.428;6.256;2023-05-10T09:37:40;96430.16;;;16.20;100.00
41334;BME280;27078;46.428;6.256;2023-05-10T09:40:12;96420.25;;;16.37;100.00
41334;BME280;27078;46.428;6.256;2023-05-10T09:42:40;96414.75;;;17.01;100.00
41334;BME280;27078;46.428;6.256;2023-05-10T09:45:06;96418.19;;;17.33;100.00
41334;BME280;27078;46.428;6.256;2023-05-10T09:47:33;96420.78;;;17.64;100.00
41334;BME280;27078;46.428;6.256;2023-05-10T09:49:59;96422.53;;;18.25;83.00
41334;BME280;27078;46.428;6.256;2023-05-10T09:52:29;96416.03;;;18.64;87.19
41334;BME280;27078;46.428;6.256;2023-05-10T09:54:54;96415.97;;;18.42;77.80
41334;BME280;27078;46.428;6.256;2023-05-10T09:57:21;96415.44;;;18.83;71.61
41334;BME280;27078;46.428;6.256;2023-05-10T09:59:47;96420.97;;;18.97;86.62
41334;BME280;27078;46.428;6.256;2023-05-10T10:02:13;96422.53;;;17.57;74.84
41334;BME280;27078;46.428;6.256;2023-05-10T10:04:39;96432.66;;;16.93;78.68
41334;BME280;27078;46.428;6.256;2023-05-10T10:07:05;96435.41;;;17.30;76.01
41334;BME280;27078;46.428;6.256;2023-05-10T10:09:32;96456.06;;;16.43;80.19
41334;BME280;27078;46.428;6.256;2023-05-10T10:11:59;96471.47;;;15.26;85.20
41334;BME280;27078;46.428;6.256;2023-05-10T10:14:25;96449.63;;;14.81;96.83
41334;BME280;27078;46.428;6.256;2023-05-10T10:16:50;96449.03;;;14.53;89.47
41334;BME280;27078;46.428;6.256;2023-05-10T10:19:18;96466.28;;;14.49;91.00
41334;BME280;27078;46.428;6.256;2023-05-10T10:21:44;96464.53;;;14.66;94.30
41334;BME280;27078;46.428;6.256;2023-05-10T10:24:09;96445.16;;;14.82;98.02
41334;BME280;27078;46.428;6.256;2023-05-10T10:26:35;96439.72;;;15.49;100.00
41334;BME280;27078;46.428;6.256;2023-05-10T10:29:23;96453.53;;;15.20;86.54
41334;BME280;27078;46.428;6.256;2023-05-10T10:32:11;96436.41;;;15.22;83.53
41334;BME280;27078;46.428;6.256;2023-05-10T10:34:42;96429.78;;;15.35;91.22
41334;BME280;27078;46.428;6.256;2023-05-10T10:37:08;96421.31;;;16.28;93.42
41334;BME280;27078;46.428;6.256;2023-05-10T10:39:33;96413.84;;;17.17;87.00
41334;BME280;27078;46.428;6.256;2023-05-10T10:42:01;96403.88;;;18.46;75.70
41334;BME280;27078;46.428;6.256;2023-05-10T10:44:36;96410.34;;;18.07;69.69
41334;BME280;27078;46.428;6.256;2023-05-10T10:49:49;96416.63;;;17.85;74.65
41334;BME280;27078;46.428;6.256;2023-05-10T10:55:10;96462.84;;;15.98;74.19
41334;BME280;27078;46.428;6.256;2023-05-10T10:57:51;96446.72;;;15.83;74.68
41334;BME280;27078;46.428;6.256;2023-05-10T11:02:47;96444.81;;;16.16;80.24
41334;BME280;27078;46.428;6.256;2023-05-10T11:05:33;96444.41;;;15.80;79.20
41334;BME280;27078;46.428;6.256;2023-05-10T11:10:32;96440.72;;;16.45;76.71
41334;BME280;27078;46.428;6.256;2023-05-10T11:13:05;96435.81;;;16.96;78.01
41334;BME280;27078;46.428;6.256;2023-05-10T11:15:48;96433.22;;;17.11;81.75
41334;BME280;27078;46.428;6.256;2023-05-10T11:18:25;96447.72;;;16.85;76.68
41334;BME280;27078;46.428;6.256;2023-05-10T11:20:52;96438.03;;;16.53;73.01
41334;BME280;27078;46.428;6.256;2023-05-10T11:23:20;96432.13;;;16.26;76.12
41334;BME280;27078;46.428;6.256;2023-05-10T11:25:47;96435.03;;;16.48;81.12
41334;BME280;27078;46.428;6.256;2023-05-10T11:28:14;96425.13;;;16.65;78.49
41334;BME280;27078;46.428;6.256;2023-05-10T11:30:41;96422.78;;;16.70;75.49
41334;BME280;27078;46.428;6.256;2023-05-10T11:33:07;96429.28;;;16.36;75.99
41334;BME280;27078;46.428;6.256;2023-05-10T11:35:40;96449.69;;;16.04;79.69
41334;BME280;27078;46.428;6.256;2023-05-10T11:38:06;96442.72;;;15.71;83.24
41334;BME280;27078;46.428;6.256;2023-05-10T11:40:31;96435.44;;;15.73;87.97
41334;BME280;27078;46.428;6.256;2023-05-10T11:42:57;96434.25;;;15.42;85.64
41334;BME280;27078;46.428;6.256;2023-05-10T11:45:23;96445.72;;;15.92;83.73
41334;BME280;27078;46.428;6.256;2023-05-10T11:47:49;96438.44;;;16.25;77.05
41334;BME280;27078;46.428;6.256;2023-05-10T11:50:15;96437.59;;;16.73;73.71
41334;BME280;27078;46.428;6.256;2023-05-10T11:52:40;96445.06;;;16.85;75.89
41334;BME280;27078;46.428;6.256;2023-05-10T11:55:06;96430.66;;;17.41;67.19
41334;BME280;27078;46.428;6.256;2023-05-10T11:57:31;96453.34;;;17.83;64.66
41334;BME280;27078;46.428;6.256;2023-05-10T11:59:57;96445.47;;;17.43;62.02
41334;BME280;27078;46.428;6.256;2023-05-10T12:02:23;96433.00;;;18.11;71.41
41334;BME280;27078;46.428;6.256;2023-05-10T12:04:49;96436.72;;;18.10;69.98
41334;BME280;27078;46.428;6.256;2023-05-10T12:07:16;96442.31;;;18.30;59.45
41334;BME280;27078;46.428;6.256;2023-05-10T12:09:44;96436.69;;;18.55;69.73
41334;BME280;27078;46.428;6.256;2023-05-10T12:12:15;96463.81;;;17.69;66.38
41334;BME280;27078;46.428;6.256;2023-05-10T12:14:41;96449.97;;;16.97;70.33
41334;BME280;27078;46.428;6.256;2023-05-10T12:17:06;96437.22;;;16.44;82.65
41334;BME280;27078;46.428;6.256;2023-05-10T12:19:38;96459.50;;;15.96;78.64
41334;BME280;27078;46.428;6.256;2023-05-10T12:22:05;96458.03;;;15.60;82.63
41334;BME280;27078;46.428;6.256;2023-05-10T12:24:30;96452.88;;;15.10;82.07
41334;BME280;27078;46.428;6.256;2023-05-10T12:26:56;96455.19;;;15.13;79.64
41334;BME280;27078;46.428;6.256;2023-05-10T12:29:21;96459.03;;;15.18;78.88
41334;BME280;27078;46.428;6.256;2023-05-10T12:31:52;96456.72;;;15.56;82.14
41334;BME280;27078;46.428;6.256;2023-05-10T12:34:34;96457.69;;;15.96;80.17
41334;BME280;27078;46.428;6.256;2023-05-10T12:37:01;96457.84;;;15.95;81.68
41334;BME280;27078;46.428;6.256;2023-05-10T12:39:38;96457.72;;;15.88;88.05
41334;BME280;27078;46.428;6.256;2023-05-10T12:42:04;96460.66;;;16.01;77.80
41334;BME280;27078;46.428;6.256;2023-05-10T12:44:29;96469.03;;;15.90;74.50
41334;BME280;27078;46.428;6.256;2023-05-10T12:46:54;96448.25;;;16.73;68.37
41334;BME280;27078;46.428;6.256;2023-05-10T12:49:20;96449.72;;;17.15;71.94
41334;BME280;27078;46.428;6.256;2023-05-10T12:51:45;96439.31;;;17.43;65.42
41334;BME280;27078;46.428;6.256;2023-05-10T12:54:11;96445.59;;;17.50;65.14
41334;BME280;27078;46.428;6.256;2023-05-10T12:56:36;96434.63;;;17.45;65.22
41334;BME280;27078;46.428;6.256;2023-05-10T12:59:02;96436.81;;;17.18;67.85
41334;BME280;27078;46.428;6.256;2023-05-10T13:01:27;96441.50;;;16.93;73.02
41334;BME280;27078;46.428;6.256;2023-05-10T13:03:53;96456.50;;;16.55;66.49
41334;BME280;27078;46.428;6.256;2023-05-10T13:06:18;96433.28;;;17.03;72.76
41334;BME280;27078;46.428;6.256;2023-05-10T13:08:43;96443.34;;;17.39;69.86
41334;BME280;27078;46.428;6.256;2023-05-10T13:11:09;96455.56;;;17.56;67.83
41334;BME280;27078;46.428;6.256;2023-05-10T13:13:34;96461.03;;;17.17;62.77
41334;BME280;27078;46.428;6.256;2023-05-10T13:16:00;96449.50;;;16.93;61.70
41334;BME280;27078;46.428;6.256;2023-05-10T13:18:25;96460.44;;;16.67;61.25